Gilead, Illinois
Current Conditions -  °F | °C
As of 6:54 PM on Thursday 18 Dec 2014 (Local Time) from KSET Reporting Station
Overcast Overcast  
Wind Chill: 25°   Ceiling: 3300
Heat Index: 32°   Visibility: 10mi
Dew Point: 26°   Wind: 8mph
Humidity: 79%   Direction: 40°NE
Pressure: 30.27"   Gusts: NA
Location:  39.0922°N, 90.6653°W
Report Text: KSET 190054Z AUTO 04007KT 10SM OVC033 00/M03 A3027 RMK AO2 SLP253 T00001033
Loading
Personal Weather Stations






























Interactive Weather Map New forecast layout! Learn more

10-Day Weather Forecast

Advertisements
Track Severe Weather on mobile